Time;durP1;ratioP1;P1;durP2;ratioP2;P2;SDS_P1;SDS_P2;PMS_P1;PMS_P2;Temp;Humidity;BMP_temperature;BMP_pressure;BME280_temperature;BME280_humidity;BME280_pressure;Samples;Min_cycle;Max_cycle;Signal;HPM_P1;HPM_P2
2024/02/22 00:01:05;;;;;;;17.47;14.97;;;7.50;93.80;;;;;;5116842;28;20174;-89
2024/02/22 00:03:31;;;;;;;16.73;15.10;;;7.50;93.70;;;;;;5116676;28;20194;-89
2024/02/22 00:05:56;;;;;;;16.43;14.83;;;7.50;93.80;;;;;;5114929;28;20245;-88
2024/02/22 00:08:22;;;;;;;16.37;14.77;;;7.50;93.80;;;;;;5116575;28;20277;-89
2024/02/22 00:10:47;;;;;;;16.87;15.17;;;7.50;93.70;;;;;;5115188;28;20213;-89
2024/02/22 00:13:14;;;;;;;17.70;15.60;;;7.50;93.90;;;;;;5116502;28;20270;-89
2024/02/22 00:15:39;;;;;;;18.93;14.37;;;7.50;94.00;;;;;;5116106;28;20170;-88
2024/02/22 00:18:05;;;;;;;18.80;14.13;;;7.50;94.00;;;;;;5115212;28;20251;-89
2024/02/22 00:20:33;;;;;;;17.17;15.40;;;7.50;94.00;;;;;;5117151;28;20585;-88
2024/02/22 00:23:01;;;;;;;14.60;13.40;;;7.50;94.00;;;;;;5115436;28;20174;-89
2024/02/22 00:25:27;;;;;;;21.60;15.47;;;7.60;94.00;;;;;;5116128;28;20563;-89
2024/02/22 00:27:52;;;;;;;16.03;14.40;;;7.60;94.10;;;;;;5115061;28;20206;-89
2024/02/22 00:30:18;;;;;;;18.47;14.63;;;7.50;94.10;;;;;;5115411;28;20181;-89
2024/02/22 00:32:43;;;;;;;17.67;15.63;;;7.50;94.20;;;;;;5116790;28;20170;-89
2024/02/22 00:35:10;;;;;;;16.97;15.53;;;7.50;94.20;;;;;;5115416;28;20170;-88
2024/02/22 00:37:36;;;;;;;16.57;14.90;;;7.50;94.40;;;;;;5116393;28;20228;-89
2024/02/22 00:40:04;;;;;;;17.77;13.57;;;7.50;94.40;;;;;;5116887;28;20174;-89
2024/02/22 00:42:30;;;;;;;16.77;15.23;;;7.50;94.30;;;;;;5115443;28;20205;-89
2024/02/22 00:44:56;;;;;;;15.87;14.27;;;7.60;94.40;;;;;;5116998;28;20547;-90
2024/02/22 00:47:21;;;;;;;17.80;15.00;;;7.50;94.40;;;;;;5114792;28;20288;-89
2024/02/22 00:49:47;;;;;;;15.27;13.87;;;7.50;94.40;;;;;;5115253;28;20205;-88
2024/02/22 00:52:12;;;;;;;16.03;14.60;;;7.60;94.40;;;;;;5116048;28;20170;-89
2024/02/22 00:54:38;;;;;;;17.47;14.47;;;7.60;94.50;;;;;;5116581;28;20170;-88
2024/02/22 00:57:03;;;;;;;15.83;14.20;;;7.60;94.50;;;;;;5116737;28;20172;-89
2024/02/22 00:59:32;;;;;;;16.40;14.80;;;7.60;94.50;;;;;;5116672;27;20763;-89
2024/02/22 01:01:57;;;;;;;16.23;14.67;;;7.60;94.40;;;;;;5116267;28;20166;-89
2024/02/22 01:04:23;;;;;;;15.30;13.90;;;7.60;94.50;;;;;;5115266;28;20181;-88
2024/02/22 01:06:50;;;;;;;16.20;14.50;;;7.50;94.60;;;;;;5112717;28;20608;-88
2024/02/22 01:09:15;;;;;;;16.10;14.37;;;7.60;94.60;;;;;;5113856;28;20190;-87
2024/02/22 01:11:41;;;;;;;15.00;13.57;;;7.60;94.60;;;;;;5115249;28;20219;-87
2024/02/22 01:14:06;;;;;;;18.10;14.17;;;7.60;94.60;;;;;;5113719;28;20173;-88
2024/02/22 01:16:34;;;;;;;14.83;13.53;;;7.60;94.60;;;;;;5115381;28;20178;-87
2024/02/22 01:18:59;;;;;;;14.43;12.87;;;7.60;94.60;;;;;;5113733;28;20201;-87
2024/02/22 01:21:25;;;;;;;16.17;14.50;;;7.60;94.70;;;;;;5114805;28;20181;-88
2024/02/22 01:23:51;;;;;;;14.47;13.27;;;7.60;94.70;;;;;;5114714;28;20174;-88
2024/02/22 01:26:17;;;;;;;14.73;13.13;;;7.60;94.70;;;;;;5113470;28;20620;-88
2024/02/22 01:28:43;;;;;;;14.77;13.23;;;7.60;94.70;;;;;;5113355;28;20201;-88
2024/02/22 01:31:09;;;;;;;13.90;12.40;;;7.60;94.80;;;;;;5113254;28;20178;-88
2024/02/22 01:33:35;;;;;;;14.53;13.30;;;7.60;94.80;;;;;;5114408;28;20219;-88
2024/02/22 01:36:01;;;;;;;14.77;13.47;;;7.60;94.80;;;;;;5113248;28;20641;-88
2024/02/22 01:38:27;;;;;;;14.43;13.03;;;7.60;94.90;;;;;;5113236;28;20251;-88
2024/02/22 01:40:53;;;;;;;15.23;13.27;;;7.60;95.00;;;;;;5114320;28;20661;-87
2024/02/22 01:43:18;;;;;;;14.73;13.30;;;7.60;95.10;;;;;;5113185;28;20182;-88
2024/02/22 01:45:44;;;;;;;20.00;15.00;;;7.60;95.10;;;;;;5112998;28;20232;-88
2024/02/22 01:48:10;;;;;;;16.03;13.80;;;7.60;95.20;;;;;;5114375;28;20197;-88
2024/02/22 01:50:38;;;;;;;16.83;15.07;;;7.60;95.30;;;;;;5112915;28;20178;-88
2024/02/22 01:53:04;;;;;;;18.90;15.00;;;7.60;95.30;;;;;;5112923;28;20204;-88
2024/02/22 01:55:30;;;;;;;16.90;15.30;;;7.50;95.40;;;;;;5113026;28;20264;-88
2024/02/22 01:57:56;;;;;;;19.77;15.33;;;7.60;95.40;;;;;;5114099;28;20227;-88
2024/02/22 02:00:23;;;;;;;15.83;14.50;;;7.60;95.40;;;;;;5114492;28;20170;-88
2024/02/22 02:02:49;;;;;;;10.57;9.10;;;7.60;95.50;;;;;;5114120;28;20257;-88
2024/02/22 02:05:16;;;;;;;14.33;10.37;;;7.50;95.50;;;;;;5112851;28;20654;-88
2024/02/22 02:07:42;;;;;;;12.30;10.20;;;7.60;95.60;;;;;;5114085;28;20240;-88
2024/02/22 02:10:11;;;;;;;11.73;9.83;;;7.60;95.60;;;;;;5114051;28;20201;-88
2024/02/22 02:12:37;;;;;;;12.80;10.10;;;7.60;95.60;;;;;;5112819;28;20178;-88
2024/02/22 02:15:04;;;;;;;15.17;10.60;;;7.60;95.60;;;;;;5113937;28;20634;-87
2024/02/22 02:17:29;;;;;;;10.17;9.17;;;7.50;95.60;;;;;;5113578;28;20172;-87
2024/02/22 02:19:57;;;;;;;13.90;9.33;;;7.60;95.70;;;;;;5114235;28;20174;-88
2024/02/22 02:23:01;;;;;;;14.23;10.80;;;7.60;95.80;;;;;;5112830;28;20739;-89
2024/02/22 02:25:28;;;;;;;12.63;10.10;;;7.60;95.80;;;;;;5071463;28;20206;-88
2024/02/22 02:27:54;;;;;;;11.27;9.87;;;7.50;95.80;;;;;;5054502;28;20698;-88
2024/02/22 02:30:19;;;;;;;12.83;10.40;;;7.60;95.90;;;;;;5080448;28;20188;-88
2024/02/22 02:32:45;;;;;;;10.87;9.43;;;7.60;95.90;;;;;;5112650;28;20177;-88
2024/02/22 02:35:10;;;;;;;12.67;9.83;;;7.60;95.90;;;;;;5112547;28;20180;-88
2024/02/22 02:37:36;;;;;;;15.83;10.47;;;7.60;96.00;;;;;;5113676;28;20529;-88
2024/02/22 02:40:02;;;;;;;11.97;9.67;;;7.60;96.00;;;;;;5113720;28;20232;-88
2024/02/22 02:42:27;;;;;;;12.90;10.67;;;7.60;96.10;;;;;;5113847;28;20170;-88
2024/02/22 02:44:53;;;;;;;12.23;10.97;;;7.60;96.10;;;;;;5113962;28;20227;-88
2024/02/22 02:47:18;;;;;;;12.83;10.90;;;7.60;96.10;;;;;;5112406;28;20282;-88
2024/02/22 02:49:44;;;;;;;11.50;9.80;;;7.60;96.20;;;;;;5112361;28;20174;-88
2024/02/22 02:52:10;;;;;;;14.20;10.30;;;7.60;96.20;;;;;;5113686;28;20605;-88
2024/02/22 02:54:35;;;;;;;12.03;10.23;;;7.60;96.20;;;;;;5113664;28;20166;-88
2024/02/22 02:57:01;;;;;;;11.03;10.03;;;7.60;96.30;;;;;;5113772;28;20185;-87
2024/02/22 02:59:26;;;;;;;11.33;9.67;;;7.60;96.40;;;;;;5113667;28;20252;-88
2024/02/22 03:01:52;;;;;;;12.73;8.87;;;7.60;96.40;;;;;;5112497;28;20174;-88
2024/02/22 03:04:18;;;;;;;14.37;11.63;;;7.60;96.40;;;;;;5112696;28;20265;-88
2024/02/22 03:06:45;;;;;;;14.80;13.47;;;7.60;96.50;;;;;;5112301;28;20374;-87
2024/02/22 03:09:11;;;;;;;14.73;13.10;;;7.50;96.50;;;;;;5113616;28;20198;-87
2024/02/22 03:11:36;;;;;;;15.60;14.10;;;7.60;96.50;;;;;;5112291;28;20195;-88
2024/02/22 03:14:02;;;;;;;15.43;14.17;;;7.60;96.50;;;;;;5114062;28;20174;-88
2024/02/22 03:16:27;;;;;;;16.23;14.57;;;7.60;96.60;;;;;;5112300;28;20178;-87
2024/02/22 03:18:53;;;;;;;14.40;13.20;;;7.60;96.60;;;;;;5113534;28;20267;-88
2024/02/22 03:21:22;;;;;;;16.43;14.93;;;7.60;96.60;;;;;;5112189;28;20551;-88
2024/02/22 03:23:49;;;;;;;16.93;15.33;;;7.60;96.60;;;;;;5113713;28;20174;-87
2024/02/22 03:26:16;;;;;;;15.63;14.13;;;7.60;96.70;;;;;;5112268;28;20201;-87
2024/02/22 03:28:42;;;;;;;14.83;13.60;;;7.60;96.70;;;;;;5113923;28;20194;-88
2024/02/22 03:31:08;;;;;;;14.30;12.93;;;7.60;96.70;;;;;;5116375;28;20196;-88
2024/02/22 03:33:34;;;;;;;16.40;14.67;;;7.60;96.70;;;;;;5116047;28;20174;-88
2024/02/22 03:36:02;;;;;;;14.87;13.60;;;7.60;96.80;;;;;;5116052;28;20661;-87
2024/02/22 03:38:28;;;;;;;16.30;14.73;;;7.60;96.80;;;;;;5115680;28;20194;-88
2024/02/22 03:40:53;;;;;;;15.33;13.93;;;7.60;96.80;;;;;;5117144;28;20584;-88
2024/02/22 03:43:19;;;;;;;16.07;14.63;;;7.60;96.80;;;;;;5117356;28;20573;-88
2024/02/22 03:45:45;;;;;;;15.93;14.43;;;7.70;96.80;;;;;;5115588;28;20185;-87
2024/02/22 03:48:11;;;;;;;17.07;14.90;;;7.70;96.80;;;;;;5115716;28;20202;-87
2024/02/22 03:50:36;;;;;;;16.53;15.03;;;7.60;96.80;;;;;;5117171;28;20166;-88
2024/02/22 03:53:02;;;;;;;15.67;14.27;;;7.60;96.80;;;;;;5115568;28;20174;-87
2024/02/22 03:55:30;;;;;;;15.63;14.17;;;7.70;96.80;;;;;;5117220;28;20166;-88
2024/02/22 03:57:56;;;;;;;16.27;14.87;;;7.60;96.90;;;;;;5115530;28;20230;-88
2024/02/22 04:00:21;;;;;;;15.60;14.10;;;7.70;96.90;;;;;;5115564;28;20174;-88
2024/02/22 04:02:48;;;;;;;14.70;13.40;;;7.70;96.90;;;;;;5115549;28;20174;-87
2024/02/22 04:05:14;;;;;;;15.17;13.87;;;7.70;96.90;;;;;;5116731;28;20254;-88
2024/02/22 04:07:42;;;;;;;16.20;14.70;;;7.70;96.90;;;;;;5115308;28;20247;-87
2024/02/22 04:10:09;;;;;;;14.83;13.50;;;7.70;96.90;;;;;;5116625;28;20189;-88
2024/02/22 04:12:34;;;;;;;15.50;14.20;;;7.70;96.90;;;;;;5115076;28;20561;-88
2024/02/22 04:15:00;;;;;;;16.30;14.90;;;7.70;96.90;;;;;;5115090;28;20261;-88
2024/02/22 04:17:26;;;;;;;16.03;14.47;;;7.70;96.90;;;;;;5116285;28;20170;-87
2024/02/22 04:19:52;;;;;;;15.83;14.33;;;7.70;96.90;;;;;;5115099;28;20660;-87
2024/02/22 04:22:19;;;;;;;16.77;15.07;;;7.70;96.90;;;;;;5116360;28;20185;-88
2024/02/22 04:24:44;;;;;;;16.73;15.23;;;7.70;96.90;;;;;;5114979;28;20174;-87
2024/02/22 04:27:10;;;;;;;15.80;14.10;;;7.70;96.90;;;;;;5115166;28;20232;-88
2024/02/22 04:29:36;;;;;;;16.30;14.73;;;7.70;96.90;;;;;;5116292;28;20197;-88
2024/02/22 04:32:01;;;;;;;16.53;15.10;;;7.70;97.00;;;;;;5115974;28;20170;-87
2024/02/22 04:34:27;;;;;;;16.30;14.70;;;7.70;97.00;;;;;;5115976;28;20170;-87
2024/02/22 04:36:53;;;;;;;17.20;15.67;;;7.70;97.00;;;;;;5114399;28;20169;-88
2024/02/22 04:39:18;;;;;;;16.70;15.00;;;7.80;97.00;;;;;;5115783;28;20307;-88
2024/02/22 04:41:44;;;;;;;16.63;15.10;;;7.80;97.00;;;;;;5114397;28;20651;-88
2024/02/22 04:44:10;;;;;;;17.87;16.07;;;7.80;97.00;;;;;;5115669;28;20603;-87
2024/02/22 04:46:35;;;;;;;17.93;16.23;;;7.70;97.00;;;;;;5115636;28;20198;-88
2024/02/22 04:49:04;;;;;;;14.60;12.37;;;7.80;97.00;;;;;;5115689;28;20307;-88
2024/02/22 04:51:31;;;;;;;17.00;14.67;;;7.80;97.00;;;;;;5114478;28;20580;-88
2024/02/22 04:53:56;;;;;;;14.63;12.30;;;7.80;97.00;;;;;;5114530;28;20185;-88
2024/02/22 04:56:22;;;;;;;15.27;13.77;;;7.80;97.00;;;;;;5116015;28;20178;-88
2024/02/22 04:58:47;;;;;;;14.73;13.10;;;7.80;97.00;;;;;;5114156;28;20197;-88
2024/02/22 05:01:13;;;;;;;20.67;14.60;;;7.90;97.00;;;;;;5115589;28;20178;-88
2024/02/22 05:03:39;;;;;;;15.27;13.17;;;7.90;97.10;;;;;;5115586;28;20173;-88
2024/02/22 05:06:05;;;;;;;16.33;14.63;;;7.80;97.10;;;;;;5114016;28;20725;-87
2024/02/22 05:08:31;;;;;;;16.67;14.63;;;7.90;97.10;;;;;;5114063;28;20285;-88
2024/02/22 05:10:56;;;;;;;18.83;14.67;;;7.90;97.10;;;;;;5114321;28;20170;-88
2024/02/22 05:13:22;;;;;;;15.83;14.33;;;7.80;97.10;;;;;;5114006;28;20633;-88
2024/02/22 05:15:48;;;;;;;17.33;14.53;;;7.90;97.10;;;;;;5115267;28;20170;-88
2024/02/22 05:18:14;;;;;;;16.67;14.97;;;7.90;97.20;;;;;;5113670;28;20198;-87
2024/02/22 05:20:39;;;;;;;17.07;15.17;;;7.90;97.20;;;;;;5113820;28;20182;-87
2024/02/22 05:23:06;;;;;;;17.27;15.57;;;7.90;97.20;;;;;;5113815;28;20173;-88
2024/02/22 05:25:32;;;;;;;17.03;15.17;;;7.90;97.20;;;;;;5115298;28;20667;-88
2024/02/22 05:27:57;;;;;;;16.97;15.17;;;7.90;97.20;;;;;;5114732;28;20202;-87
2024/02/22 05:30:23;;;;;;;16.27;14.53;;;8.00;97.20;;;;;;5113752;28;20261;-88
2024/02/22 05:32:48;;;;;;;15.47;13.60;;;8.00;97.20;;;;;;5113657;28;20198;-88
2024/02/22 05:35:14;;;;;;;16.00;14.43;;;8.00;97.20;;;;;;5115400;28;20649;-88
2024/02/22 05:37:39;;;;;;;17.43;15.57;;;8.00;97.30;;;;;;5113486;28;20197;-87
2024/02/22 05:40:08;;;;;;;16.00;14.30;;;8.00;97.30;;;;;;5113388;28;20693;-88
2024/02/22 05:42:36;;;;;;;16.97;14.17;;;8.00;97.30;;;;;;5115155;28;20198;-87
2024/02/22 05:45:03;;;;;;;18.03;15.70;;;8.00;97.30;;;;;;5115143;28;20181;-88
2024/02/22 05:47:28;;;;;;;19.13;15.83;;;8.00;97.30;;;;;;5113532;28;20254;-88
2024/02/22 05:49:54;;;;;;;15.97;14.07;;;8.00;97.30;;;;;;5113646;28;20173;-88
2024/02/22 05:52:19;;;;;;;16.33;14.43;;;8.00;97.30;;;;;;5113196;28;20235;-88
2024/02/22 05:54:45;;;;;;;19.50;17.50;;;8.00;97.30;;;;;;5114755;28;20173;-88
2024/02/22 05:57:12;;;;;;;19.80;17.83;;;8.00;97.30;;;;;;5113496;28;20189;-88
2024/02/22 05:59:38;;;;;;;21.10;18.87;;;8.00;97.40;;;;;;5113073;28;20284;-88
2024/02/22 06:02:03;;;;;;;18.67;16.87;;;8.00;97.30;;;;;;5114571;28;20242;-88
2024/02/22 06:04:29;;;;;;;19.73;17.83;;;8.00;97.30;;;;;;5114503;28;20671;-88
2024/02/22 06:06:55;;;;;;;19.17;17.27;;;8.10;97.40;;;;;;5113049;28;20262;-88
2024/02/22 06:09:20;;;;;;;20.13;18.03;;;8.00;97.40;;;;;;5113169;28;20669;-87
2024/02/22 06:11:46;;;;;;;19.67;17.60;;;8.10;97.30;;;;;;5113072;28;20211;-88
2024/02/22 06:14:11;;;;;;;20.17;18.17;;;8.10;97.40;;;;;;5113074;28;20253;-87
2024/02/22 06:16:37;;;;;;;20.63;18.53;;;8.10;97.40;;;;;;5113189;28;20174;-88
2024/02/22 06:19:02;;;;;;;21.47;17.93;;;8.10;97.30;;;;;;5112883;28;20198;-87
2024/02/22 06:21:28;;;;;;;21.40;19.23;;;8.10;97.40;;;;;;5114257;28;20177;-88
2024/02/22 06:23:55;;;;;;;20.73;18.53;;;8.10;97.40;;;;;;5113025;28;20270;-88
2024/02/22 06:26:21;;;;;;;21.20;18.97;;;8.10;97.40;;;;;;5112873;28;20225;-88
2024/02/22 06:28:47;;;;;;;19.53;17.40;;;8.10;97.40;;;;;;5112918;28;20576;-88
2024/02/22 06:31:13;;;;;;;22.40;18.17;;;8.10;97.40;;;;;;5112802;28;20174;-88
2024/02/22 06:33:39;;;;;;;19.80;17.67;;;8.10;97.40;;;;;;5112979;28;20173;-88
2024/02/22 06:36:06;;;;;;;20.07;17.83;;;8.10;97.40;;;;;;5112596;28;20706;-87
2024/02/22 06:38:31;;;;;;;20.87;18.60;;;8.10;97.40;;;;;;5113913;28;20190;-87
2024/02/22 06:40:58;;;;;;;21.87;18.90;;;8.10;97.40;;;;;;5114334;28;20663;-88
2024/02/22 06:43:24;;;;;;;23.47;18.57;;;8.20;97.40;;;;;;5112691;28;20201;-87
2024/02/22 06:45:49;;;;;;;23.43;19.30;;;8.20;97.40;;;;;;5112863;28;20199;-88
2024/02/22 06:48:15;;;;;;;23.97;18.60;;;8.10;97.40;;;;;;5112449;28;20224;-87
2024/02/22 06:50:41;;;;;;;25.03;19.13;;;8.20;97.40;;;;;;5112668;28;20189;-87
2024/02/22 06:53:07;;;;;;;23.00;18.57;;;8.20;97.40;;;;;;5112809;28;20178;-87
2024/02/22 06:55:33;;;;;;;23.53;19.17;;;8.20;97.40;;;;;;5113868;28;20549;-87
2024/02/22 06:58:00;;;;;;;25.03;18.03;;;8.20;97.30;;;;;;5112747;28;20202;-87
2024/02/22 07:00:26;;;;;;;27.97;20.43;;;8.20;97.40;;;;;;5113929;27;20563;-87
2024/02/22 07:02:52;;;;;;;25.03;19.30;;;8.20;97.40;;;;;;5112761;28;20189;-87
2024/02/22 07:05:18;;;;;;;25.27;19.73;;;8.30;97.40;;;;;;5113907;28;20189;-87
2024/02/22 07:07:44;;;;;;;30.00;21.07;;;8.30;97.40;;;;;;5116460;28;20213;-88
2024/02/22 07:10:15;;;;;;;30.37;21.00;;;8.30;97.30;;;;;;5116951;28;20170;-88
2024/02/22 07:12:43;;;;;;;30.83;21.70;;;8.30;97.40;;;;;;5116956;28;20182;-88
2024/02/22 07:15:10;;;;;;;32.30;22.13;;;8.30;97.40;;;;;;5116515;28;20173;-89
2024/02/22 07:17:35;;;;;;;40.43;23.60;;;8.30;97.40;;;;;;5116986;28;20182;-88
2024/02/22 07:20:01;;;;;;;34.13;21.07;;;8.30;97.40;;;;;;5116621;28;20174;-88
2024/02/22 07:22:26;;;;;;;36.70;22.50;;;8.30;97.40;;;;;;5116192;28;20223;-88
2024/02/22 07:24:52;;;;;;;34.27;22.27;;;8.30;97.40;;;;;;5117571;28;20219;-88
2024/02/22 07:27:18;;;;;;;40.87;24.77;;;8.30;97.40;;;;;;5117443;28;20197;-89
2024/02/22 07:29:43;;;;;;;41.73;24.57;;;8.30;97.40;;;;;;5116149;28;20194;-88
2024/02/22 07:32:09;;;;;;;43.90;25.90;;;8.30;97.40;;;;;;5117333;28;20252;-88
2024/02/22 07:34:34;;;;;;;45.33;26.27;;;8.40;97.40;;;;;;5117441;28;20264;-88
2024/02/22 07:37:00;;;;;;;40.57;24.83;;;8.40;97.40;;;;;;5116123;28;20186;-88
2024/02/22 07:39:25;;;;;;;51.30;27.83;;;8.30;97.40;;;;;;5115987;28;20281;-88
2024/02/22 07:41:51;;;;;;;46.80;24.83;;;8.40;97.40;;;;;;5117430;28;20170;-90
2024/02/22 07:44:17;;;;;;;53.67;26.63;;;8.40;97.40;;;;;;5116326;28;20173;-88
2024/02/22 07:46:43;;;;;;;55.17;27.70;;;8.50;97.50;;;;;;5115689;28;20198;-88
2024/02/22 07:49:08;;;;;;;62.23;28.87;;;8.40;97.50;;;;;;5116713;28;20190;-88
2024/02/22 07:51:34;;;;;;;61.90;29.47;;;8.50;97.50;;;;;;5115679;28;20223;-88
2024/02/22 07:54:00;;;;;;;58.53;29.13;;;8.50;97.50;;;;;;5116874;28;20245;-88
2024/02/22 07:56:25;;;;;;;61.53;28.87;;;8.50;97.50;;;;;;5115959;28;20205;-88
2024/02/22 07:58:58;;;;;;;58.87;27.60;;;8.60;97.50;;;;;;5116731;28;20269;-88
2024/02/22 08:01:23;;;;;;;61.70;26.07;;;8.60;97.50;;;;;;5115805;28;20178;-88
2024/02/22 08:03:49;;;;;;;70.97;29.70;;;8.60;97.60;;;;;;5116667;28;20177;-88
2024/02/22 08:06:15;;;;;;;71.27;28.80;;;8.60;97.60;;;;;;5116298;28;20587;-88
2024/02/22 08:08:41;;;;;;;77.43;31.57;;;8.60;97.60;;;;;;5115174;28;20570;-88
2024/02/22 08:11:08;;;;;;;71.90;29.67;;;8.70;97.60;;;;;;5116385;28;20174;-88
2024/02/22 08:13:34;;;;;;;73.87;29.20;;;8.70;97.60;;;;;;5115376;28;20223;-88
2024/02/22 08:16:07;;;;;;;75.40;29.53;;;8.70;97.60;;;;;;5115161;28;20253;-88
2024/02/22 08:18:37;;;;;;;78.70;30.70;;;8.70;97.70;;;;;;5116023;27;20669;-88
2024/02/22 08:21:05;;;;;;;81.40;29.50;;;8.70;97.60;;;;;;5115275;28;20170;-88
2024/02/22 08:23:30;;;;;;;79.97;28.53;;;8.70;97.70;;;;;;5116389;28;20664;-88
2024/02/22 08:25:56;;;;;;;77.97;30.63;;;8.70;97.70;;;;;;5116387;28;20227;-89
2024/02/22 08:28:27;;;;;;;82.70;29.00;;;8.80;97.70;;;;;;5115792;28;20188;-88
2024/02/22 08:30:52;;;;;;;84.13;29.63;;;8.80;97.70;;;;;;5114716;28;20170;-88
2024/02/22 08:33:20;;;;;;;79.63;29.43;;;8.80;97.70;;;;;;5116331;28;20172;-88
2024/02/22 08:35:45;;;;;;;78.63;29.13;;;8.80;97.70;;;;;;5116525;28;20215;-88
2024/02/22 08:38:12;;;;;;;66.23;26.07;;;8.80;97.70;;;;;;5115115;28;20193;-88
2024/02/22 08:40:39;;;;;;;83.57;28.80;;;8.80;97.70;;;;;;5114637;28;20209;-88
2024/02/22 08:43:05;;;;;;;73.27;28.00;;;8.80;97.70;;;;;;5115952;28;20219;-88
2024/02/22 08:45:35;;;;;;;74.17;28.20;;;8.90;97.70;;;;;;5116067;28;20173;-88
2024/02/22 08:48:00;;;;;;;82.90;29.90;;;8.90;97.70;;;;;;5114731;28;20230;-88
2024/02/22 08:50:26;;;;;;;80.00;31.47;;;8.90;97.70;;;;;;5114795;28;20638;-88
2024/02/22 08:52:52;;;;;;;72.73;26.80;;;9.00;97.70;;;;;;5116310;28;20166;-88
2024/02/22 08:55:17;;;;;;;68.07;24.00;;;9.00;97.70;;;;;;5116346;28;20162;-88
2024/02/22 08:57:43;;;;;;;74.83;28.23;;;9.00;97.70;;;;;;5114378;28;20307;-88
2024/02/22 09:00:10;;;;;;;83.53;29.53;;;9.10;97.70;;;;;;5115462;28;20253;-87
2024/02/22 09:02:39;;;;;;;86.67;27.90;;;9.10;97.70;;;;;;5114253;28;20174;-88
2024/02/22 09:05:08;;;;;;;72.67;27.87;;;9.00;97.70;;;;;;5114098;28;20196;-88
2024/02/22 09:07:35;;;;;;;82.43;27.87;;;9.10;97.70;;;;;;5114613;28;20206;-88
2024/02/22 09:10:04;;;;;;;92.03;32.20;;;9.10;97.70;;;;;;5115545;28;20175;-88
2024/02/22 09:12:30;;;;;;;76.17;27.83;;;9.10;97.70;;;;;;5114198;28;20174;-88
2024/02/22 09:14:55;;;;;;;86.47;30.40;;;9.10;97.70;;;;;;5115335;28;20600;-88
2024/02/22 09:17:21;;;;;;;88.67;30.90;;;9.10;97.70;;;;;;5114172;28;20185;-88
2024/02/22 09:19:46;;;;;;;79.53;27.27;;;9.10;97.70;;;;;;5114123;28;20170;-88
2024/02/22 09:22:12;;;;;;;85.17;29.30;;;9.20;97.70;;;;;;5115267;28;20174;-88
2024/02/22 09:24:47;;;;;;;78.77;26.47;;;9.20;97.70;;;;;;5115585;28;20188;-88
2024/02/22 09:27:13;;;;;;;68.80;27.90;;;9.20;97.70;;;;;;5114982;28;20281;-88
2024/02/22 09:29:40;;;;;;;76.70;28.30;;;9.20;97.70;;;;;;5113407;28;20193;-88
2024/02/22 09:32:06;;;;;;;78.37;28.93;;;9.30;97.70;;;;;;5113837;28;20190;-88
2024/02/22 09:34:33;;;;;;;73.47;28.30;;;9.30;97.70;;;;;;5115031;28;20589;-88
2024/02/22 09:37:01;;;;;;;71.43;25.70;;;9.30;97.70;;;;;;5114202;28;20222;-88
2024/02/22 09:39:27;;;;;;;68.23;25.63;;;9.40;97.80;;;;;;5115069;28;20190;-88
2024/02/22 09:41:53;;;;;;;69.87;26.67;;;9.40;97.70;;;;;;5114949;28;20185;-87
2024/02/22 09:44:19;;;;;;;75.30;26.60;;;9.50;97.70;;;;;;5114778;28;20192;-89
2024/02/22 09:46:49;;;;;;;75.60;27.80;;;9.50;97.70;;;;;;5113564;28;20760;-88
2024/02/22 09:49:15;;;;;;;66.27;25.83;;;9.50;97.70;;;;;;5113360;28;20201;-88
2024/02/22 09:51:41;;;;;;;68.20;27.67;;;9.50;97.70;;;;;;5113439;28;20174;-88
2024/02/22 09:54:07;;;;;;;68.50;26.53;;;9.50;97.70;;;;;;5113519;28;20219;-88
2024/02/22 09:56:34;;;;;;;69.00;27.47;;;9.50;97.70;;;;;;5114984;28;20174;-88
2024/02/22 09:59:00;;;;;;;70.67;28.43;;;9.60;97.70;;;;;;5113337;28;20194;-89
2024/02/22 10:01:25;;;;;;;67.57;30.50;;;9.60;97.70;;;;;;5113307;28;20178;-88
2024/02/22 10:03:51;;;;;;;57.33;27.27;;;9.70;97.70;;;;;;5113329;28;20633;-89
2024/02/22 10:06:18;;;;;;;51.10;25.63;;;9.60;97.60;;;;;;5113455;28;20192;-88
2024/02/22 10:08:44;;;;;;;52.40;25.30;;;9.70;97.70;;;;;;5114957;28;20189;-88
2024/02/22 10:11:10;;;;;;;49.93;24.27;;;9.70;97.60;;;;;;5113799;28;20182;-88
2024/02/22 10:13:36;;;;;;;48.47;24.50;;;9.80;97.60;;;;;;5114450;28;20166;-88
2024/02/22 10:16:12;;;;;;;42.57;24.50;;;9.80;97.60;;;;;;5114597;28;20162;-88
2024/02/22 10:18:39;;;;;;;42.93;23.07;;;9.80;97.60;;;;;;5112921;28;20278;-88
2024/02/22 10:21:16;;;;;;;36.43;21.40;;;9.80;97.60;;;;;;5114307;28;20162;-88
2024/02/22 10:23:43;;;;;;;37.07;20.97;;;9.90;97.50;;;;;;5114766;28;20189;-88
2024/02/22 10:26:09;;;;;;;33.50;20.43;;;10.00;97.50;;;;;;5112895;28;20173;-88
2024/02/22 10:28:34;;;;;;;34.63;19.27;;;10.00;97.50;;;;;;5112819;28;20182;-88
2024/02/22 10:31:04;;;;;;;32.63;18.97;;;10.10;97.50;;;;;;5113234;28;20174;-88
2024/02/22 10:33:30;;;;;;;28.83;17.90;;;10.10;97.40;;;;;;5114359;28;20686;-88
2024/02/22 10:35:59;;;;;;;31.70;18.90;;;10.00;97.40;;;;;;5112983;28;20170;-88
2024/02/22 10:38:28;;;;;;;25.70;17.13;;;10.10;97.40;;;;;;5113785;28;20189;-88
2024/02/22 10:40:55;;;;;;;30.47;19.13;;;10.00;97.30;;;;;;5117215;28;20169;-88
2024/02/22 10:43:24;;;;;;;27.73;18.93;;;10.10;97.30;;;;;;5117128;28;20184;-88
2024/02/22 10:45:53;;;;;;;29.00;19.20;;;10.00;97.20;;;;;;5116827;28;20553;-89
2024/02/22 10:48:20;;;;;;;31.47;19.30;;;10.10;97.20;;;;;;5116638;28;20205;-88
2024/02/22 10:50:48;;;;;;;26.33;18.27;;;10.10;97.20;;;;;;5118333;28;20631;-89
2024/02/22 10:53:15;;;;;;;25.60;17.70;;;10.10;97.10;;;;;;5118127;28;20167;-88
2024/02/22 10:55:49;;;;;;;20.93;16.20;;;10.10;97.00;;;;;;5117980;28;20185;-88
2024/02/22 10:58:21;;;;;;;20.87;15.90;;;10.20;96.90;;;;;;5118022;28;20322;-89
2024/02/22 11:00:51;;;;;;;18.63;15.90;;;10.20;96.80;;;;;;5119158;28;20162;-88
2024/02/22 11:03:17;;;;;;;20.07;15.77;;;10.20;96.80;;;;;;5118288;27;20587;-88
2024/02/22 11:05:47;;;;;;;18.83;16.00;;;10.20;96.70;;;;;;5117652;27;20196;-88
2024/02/22 11:08:22;;;;;;;19.67;15.03;;;10.30;96.70;;;;;;5116768;28;20251;-89
2024/02/22 11:11:10;;;;;;;17.90;15.97;;;10.30;96.60;;;;;;5118343;28;20170;-88
2024/02/22 11:13:36;;;;;;;19.03;17.13;;;10.30;96.40;;;;;;5118255;28;20142;-88
2024/02/22 11:16:15;;;;;;;18.50;16.63;;;10.30;96.20;;;;;;5116950;28;20219;-88
2024/02/22 11:18:41;;;;;;;16.73;13.77;;;10.30;96.00;;;;;;5117083;28;20261;-88
2024/02/22 11:21:13;;;;;;;15.00;12.37;;;10.40;96.00;;;;;;5117469;28;20205;-88
2024/02/22 11:23:39;;;;;;;15.43;13.27;;;10.40;95.90;;;;;;5116182;28;20174;-88
2024/02/22 11:26:04;;;;;;;16.10;13.37;;;10.50;95.90;;;;;;5116279;28;20170;-88
2024/02/22 11:28:30;;;;;;;17.37;15.13;;;10.50;95.80;;;;;;5117443;27;20276;-88
2024/02/22 11:31:07;;;;;;;17.90;15.83;;;10.40;95.70;;;;;;5116230;28;20185;-89
2024/02/22 11:33:34;;;;;;;20.43;16.23;;;10.40;95.40;;;;;;5117040;28;20570;-88
2024/02/22 11:36:00;;;;;;;18.40;15.27;;;10.60;95.40;;;;;;5117633;28;20162;-88
2024/02/22 11:38:26;;;;;;;17.27;15.43;;;10.60;95.20;;;;;;5116039;28;20202;-88
2024/02/22 11:40:52;;;;;;;18.53;16.53;;;10.60;95.10;;;;;;5116004;28;20644;-88
2024/02/22 11:43:24;;;;;;;19.00;16.53;;;10.50;94.90;;;;;;5117934;28;20224;-87
2024/02/22 11:46:00;;;;;;;23.17;16.53;;;10.60;94.90;;;;;;5116617;28;20551;-88
2024/02/22 11:48:27;;;;;;;19.83;16.67;;;10.60;94.70;;;;;;5117033;28;20696;-88
2024/02/22 11:50:52;;;;;;;25.57;19.70;;;10.70;94.50;;;;;;5115527;28;20170;-88
2024/02/22 11:53:18;;;;;;;22.47;18.30;;;10.80;94.40;;;;;;5116386;28;20166;-88
2024/02/22 11:55:49;;;;;;;25.37;18.57;;;10.90;94.30;;;;;;5117114;28;20181;-88
2024/02/22 11:58:15;;;;;;;31.80;22.10;;;10.80;94.00;;;;;;5116343;28;20201;-88
2024/02/22 12:00:42;;;;;;;29.87;22.20;;;10.90;93.90;;;;;;5117657;28;20174;-88
2024/02/22 12:03:08;;;;;;;27.70;21.70;;;10.90;94.00;;;;;;5116074;28;20174;-89
2024/02/22 12:05:34;;;;;;;27.00;21.83;;;11.00;93.90;;;;;;5116012;28;20194;-89
2024/02/22 12:08:00;;;;;;;29.57;19.73;;;11.10;93.90;;;;;;5116777;28;20206;-88
2024/02/22 12:10:25;;;;;;;25.07;20.00;;;11.20;93.70;;;;;;5116100;28;20551;-89
2024/02/22 12:12:51;;;;;;;21.37;19.00;;;11.30;93.70;;;;;;5116340;28;20696;-88
2024/02/22 12:15:20;;;;;;;23.97;18.53;;;11.50;93.60;;;;;;5115596;28;20174;-89
2024/02/22 12:17:49;;;;;;;22.83;19.40;;;11.40;92.80;;;;;;5115110;28;20197;-88
2024/02/22 12:20:15;;;;;;;23.17;18.77;;;11.30;93.00;;;;;;5115153;28;20200;-88
2024/02/22 12:22:45;;;;;;;20.40;18.40;;;11.30;93.20;;;;;;5115339;28;20178;-88
2024/02/22 12:25:10;;;;;;;25.97;21.33;;;11.30;93.20;;;;;;5115404;28;20210;-89
2024/02/22 12:27:36;;;;;;;22.40;19.67;;;11.20;93.00;;;;;;5114446;28;20724;-89
2024/02/22 12:30:02;;;;;;;22.30;20.00;;;11.20;92.90;;;;;;5115865;28;20249;-88
2024/02/22 12:32:28;;;;;;;27.60;21.30;;;11.20;92.20;;;;;;5114795;28;20311;-88